sensor_id;sensor_type;location;lat;lon;timestamp;P1;durP1;ratioP1;P2;durP2;ratioP2
43578;SDS011;29174;44.640;10.896;2024-03-23T00:55:37;20.20;;;10.93;;
43578;SDS011;29174;44.640;10.896;2024-03-23T00:58:02;19.63;;;10.25;;
43578;SDS011;29174;44.640;10.896;2024-03-23T01:00:28;14.35;;;10.27;;
43578;SDS011;29174;44.640;10.896;2024-03-23T01:02:54;16.20;;;10.32;;
43578;SDS011;29174;44.640;10.896;2024-03-23T01:05:19;15.15;;;10.43;;
43578;SDS011;29174;44.640;10.896;2024-03-23T01:07:45;13.88;;;10.43;;
43578;SDS011;29174;44.640;10.896;2024-03-23T01:10:10;14.30;;;9.98;;
43578;SDS011;29174;44.640;10.896;2024-03-23T01:12:36;14.93;;;10.05;;
43578;SDS011;29174;44.640;10.896;2024-03-23T01:15:02;15.35;;;10.55;;
43578;SDS011;29174;44.640;10.896;2024-03-23T01:17:28;14.25;;;9.82;;
43578;SDS011;29174;44.640;10.896;2024-03-23T01:19:53;18.10;;;10.18;;
43578;SDS011;29174;44.640;10.896;2024-03-23T01:22:19;13.88;;;10.02;;
43578;SDS011;29174;44.640;10.896;2024-03-23T01:24:45;14.50;;;10.65;;
43578;SDS011;29174;44.640;10.896;2024-03-23T01:27:10;16.90;;;10.60;;
43578;SDS011;29174;44.640;10.896;2024-03-23T01:29:36;15.82;;;10.77;;
43578;SDS011;29174;44.640;10.896;2024-03-23T01:32:02;15.07;;;9.77;;
43578;SDS011;29174;44.640;10.896;2024-03-23T01:34:27;17.00;;;10.02;;
43578;SDS011;29174;44.640;10.896;2024-03-23T01:36:53;17.10;;;9.32;;
43578;SDS011;29174;44.640;10.896;2024-03-23T01:39:19;16.95;;;11.25;;
43578;SDS011;29174;44.640;10.896;2024-03-23T01:41:44;15.80;;;10.75;;
43578;SDS011;29174;44.640;10.896;2024-03-23T01:44:10;16.65;;;10.07;;
43578;SDS011;29174;44.640;10.896;2024-03-23T01:46:36;13.45;;;9.88;;
43578;SDS011;29174;44.640;10.896;2024-03-23T01:49:03;15.25;;;9.52;;
43578;SDS011;29174;44.640;10.896;2024-03-23T01:51:32;15.57;;;10.38;;
43578;SDS011;29174;44.640;10.896;2024-03-23T01:53:58;15.70;;;9.90;;
43578;SDS011;29174;44.640;10.896;2024-03-23T01:56:28;12.23;;;8.68;;
43578;SDS011;29174;44.640;10.896;2024-03-23T01:58:55;12.27;;;9.57;;
43578;SDS011;29174;44.640;10.896;2024-03-23T02:01:21;16.77;;;9.10;;
43578;SDS011;29174;44.640;10.896;2024-03-23T02:03:46;17.52;;;9.75;;
43578;SDS011;29174;44.640;10.896;2024-03-23T02:06:12;13.40;;;9.63;;
43578;SDS011;29174;44.640;10.896;2024-03-23T02:08:37;12.18;;;8.45;;
43578;SDS011;29174;44.640;10.896;2024-03-23T02:11:04;12.95;;;9.43;;
43578;SDS011;29174;44.640;10.896;2024-03-23T02:13:29;14.70;;;9.23;;
43578;SDS011;29174;44.640;10.896;2024-03-23T02:15:56;13.15;;;9.25;;
43578;SDS011;29174;44.640;10.896;2024-03-23T02:18:22;16.63;;;9.40;;
43578;SDS011;29174;44.640;10.896;2024-03-23T02:20:48;13.45;;;8.85;;
43578;SDS011;29174;44.640;10.896;2024-03-23T02:23:14;13.32;;;9.10;;
43578;SDS011;29174;44.640;10.896;2024-03-23T02:25:40;11.75;;;9.25;;
43578;SDS011;29174;44.640;10.896;2024-03-23T02:28:06;11.55;;;8.90;;
43578;SDS011;29174;44.640;10.896;2024-03-23T02:30:32;11.82;;;8.75;;
43578;SDS011;29174;44.640;10.896;2024-03-23T02:32:58;14.23;;;9.70;;
43578;SDS011;29174;44.640;10.896;2024-03-23T02:35:23;14.30;;;9.18;;
43578;SDS011;29174;44.640;10.896;2024-03-23T02:37:49;13.05;;;9.43;;
43578;SDS011;29174;44.640;10.896;2024-03-23T02:40:15;15.88;;;10.38;;
43578;SDS011;29174;44.640;10.896;2024-03-23T02:42:41;14.82;;;9.15;;
43578;SDS011;29174;44.640;10.896;2024-03-23T02:45:07;13.80;;;10.05;;
43578;SDS011;29174;44.640;10.896;2024-03-23T02:47:33;13.65;;;9.00;;
43578;SDS011;29174;44.640;10.896;2024-03-23T02:49:58;13.95;;;9.27;;
43578;SDS011;29174;44.640;10.896;2024-03-23T02:52:24;13.13;;;9.77;;
43578;SDS011;29174;44.640;10.896;2024-03-23T02:54:49;14.23;;;10.15;;
43578;SDS011;29174;44.640;10.896;2024-03-23T02:57:15;15.40;;;10.93;;
43578;SDS011;29174;44.640;10.896;2024-03-23T02:59:41;18.80;;;11.15;;
43578;SDS011;29174;44.640;10.896;2024-03-23T03:02:07;17.52;;;11.55;;
43578;SDS011;29174;44.640;10.896;2024-03-23T03:04:32;18.90;;;12.75;;
43578;SDS011;29174;44.640;10.896;2024-03-23T03:06:58;15.52;;;11.23;;
43578;SDS011;29174;44.640;10.896;2024-03-23T03:09:24;16.50;;;11.25;;
43578;SDS011;29174;44.640;10.896;2024-03-23T03:11:50;17.42;;;11.02;;
43578;SDS011;29174;44.640;10.896;2024-03-23T03:14:15;17.02;;;11.68;;
43578;SDS011;29174;44.640;10.896;2024-03-23T03:16:41;18.30;;;12.55;;
43578;SDS011;29174;44.640;10.896;2024-03-23T03:19:07;20.70;;;12.95;;
43578;SDS011;29174;44.640;10.896;2024-03-23T03:21:32;19.92;;;12.75;;
43578;SDS011;29174;44.640;10.896;2024-03-23T03:23:58;21.15;;;12.57;;
43578;SDS011;29174;44.640;10.896;2024-03-23T03:26:23;20.05;;;12.90;;
43578;SDS011;29174;44.640;10.896;2024-03-23T03:28:50;22.35;;;11.77;;
43578;SDS011;29174;44.640;10.896;2024-03-23T03:31:15;18.40;;;12.70;;
43578;SDS011;29174;44.640;10.896;2024-03-23T03:33:42;22.38;;;13.57;;
43578;SDS011;29174;44.640;10.896;2024-03-23T03:36:08;21.98;;;13.48;;
43578;SDS011;29174;44.640;10.896;2024-03-23T03:38:35;28.55;;;12.98;;
43578;SDS011;29174;44.640;10.896;2024-03-23T03:41:01;21.27;;;13.50;;
43578;SDS011;29174;44.640;10.896;2024-03-23T03:43:27;20.35;;;12.55;;
43578;SDS011;29174;44.640;10.896;2024-03-23T03:45:56;20.15;;;11.80;;
43578;SDS011;29174;44.640;10.896;2024-03-23T03:48:23;17.98;;;11.77;;
43578;SDS011;29174;44.640;10.896;2024-03-23T03:50:49;18.35;;;11.90;;
43578;SDS011;29174;44.640;10.896;2024-03-23T03:53:15;21.98;;;13.05;;
43578;SDS011;29174;44.640;10.896;2024-03-23T03:55:41;18.52;;;11.57;;
43578;SDS011;29174;44.640;10.896;2024-03-23T03:58:06;19.27;;;11.93;;
43578;SDS011;29174;44.640;10.896;2024-03-23T04:00:32;18.55;;;10.90;;
43578;SDS011;29174;44.640;10.896;2024-03-23T04:02:58;18.58;;;11.27;;
43578;SDS011;29174;44.640;10.896;2024-03-23T04:05:24;19.15;;;12.50;;
43578;SDS011;29174;44.640;10.896;2024-03-23T04:07:49;21.00;;;12.43;;
43578;SDS011;29174;44.640;10.896;2024-03-23T04:10:15;17.60;;;11.15;;
43578;SDS011;29174;44.640;10.896;2024-03-23T04:12:41;17.75;;;11.10;;
43578;SDS011;29174;44.640;10.896;2024-03-23T04:17:34;17.67;;;11.30;;
43578;SDS011;29174;44.640;10.896;2024-03-23T04:19:59;16.27;;;11.05;;
43578;SDS011;29174;44.640;10.896;2024-03-23T04:22:27;15.77;;;11.57;;
43578;SDS011;29174;44.640;10.896;2024-03-23T04:24:53;17.45;;;12.13;;
43578;SDS011;29174;44.640;10.896;2024-03-23T04:27:20;16.15;;;11.45;;
43578;SDS011;29174;44.640;10.896;2024-03-23T04:29:52;17.42;;;11.57;;
43578;SDS011;29174;44.640;10.896;2024-03-23T04:32:20;15.40;;;10.98;;
43578;SDS011;29174;44.640;10.896;2024-03-23T04:34:46;15.07;;;10.70;;
43578;SDS011;29174;44.640;10.896;2024-03-23T04:37:11;17.65;;;10.52;;
43578;SDS011;29174;44.640;10.896;2024-03-23T04:39:37;13.98;;;10.90;;
43578;SDS011;29174;44.640;10.896;2024-03-23T04:42:03;16.73;;;11.60;;
43578;SDS011;29174;44.640;10.896;2024-03-23T04:44:29;17.53;;;11.73;;
43578;SDS011;29174;44.640;10.896;2024-03-23T04:46:56;19.20;;;12.50;;
43578;SDS011;29174;44.640;10.896;2024-03-23T04:49:25;13.35;;;9.88;;
43578;SDS011;29174;44.640;10.896;2024-03-23T04:51:51;14.77;;;10.60;;
43578;SDS011;29174;44.640;10.896;2024-03-23T04:54:16;14.93;;;10.07;;
43578;SDS011;29174;44.640;10.896;2024-03-23T04:56:42;13.95;;;10.60;;
43578;SDS011;29174;44.640;10.896;2024-03-23T04:59:08;14.20;;;9.70;;
43578;SDS011;29174;44.640;10.896;2024-03-23T05:01:34;14.73;;;9.73;;
43578;SDS011;29174;44.640;10.896;2024-03-23T05:04:00;11.85;;;9.30;;
43578;SDS011;29174;44.640;10.896;2024-03-23T05:06:26;11.35;;;9.25;;
43578;SDS011;29174;44.640;10.896;2024-03-23T05:08:55;16.25;;;8.93;;
43578;SDS011;29174;44.640;10.896;2024-03-23T05:11:21;13.27;;;9.30;;
43578;SDS011;29174;44.640;10.896;2024-03-23T05:13:46;13.68;;;9.88;;
43578;SDS011;29174;44.640;10.896;2024-03-23T05:16:12;16.60;;;9.30;;
43578;SDS011;29174;44.640;10.896;2024-03-23T05:18:37;14.50;;;10.40;;
43578;SDS011;29174;44.640;10.896;2024-03-23T05:21:03;10.70;;;8.43;;
43578;SDS011;29174;44.640;10.896;2024-03-23T05:23:29;11.40;;;9.15;;
43578;SDS011;29174;44.640;10.896;2024-03-23T05:25:55;16.48;;;9.68;;
43578;SDS011;29174;44.640;10.896;2024-03-23T05:28:21;12.45;;;8.40;;
43578;SDS011;29174;44.640;10.896;2024-03-23T05:30:50;15.30;;;9.07;;
43578;SDS011;29174;44.640;10.896;2024-03-23T05:33:20;13.55;;;9.43;;
43578;SDS011;29174;44.640;10.896;2024-03-23T05:35:46;17.93;;;9.80;;
43578;SDS011;29174;44.640;10.896;2024-03-23T05:38:12;15.38;;;9.77;;
43578;SDS011;29174;44.640;10.896;2024-03-23T05:40:39;17.87;;;10.93;;
43578;SDS011;29174;44.640;10.896;2024-03-23T05:43:05;16.55;;;9.30;;
43578;SDS011;29174;44.640;10.896;2024-03-23T05:45:32;15.50;;;11.25;;
43578;SDS011;29174;44.640;10.896;2024-03-23T05:47:58;17.87;;;10.00;;
43578;SDS011;29174;44.640;10.896;2024-03-23T05:50:24;16.40;;;10.63;;
43578;SDS011;29174;44.640;10.896;2024-03-23T05:52:49;17.48;;;10.07;;
43578;SDS011;29174;44.640;10.896;2024-03-23T05:55:15;18.17;;;10.57;;
43578;SDS011;29174;44.640;10.896;2024-03-23T05:57:41;17.05;;;11.88;;
43578;SDS011;29174;44.640;10.896;2024-03-23T06:00:07;14.95;;;10.00;;
43578;SDS011;29174;44.640;10.896;2024-03-23T06:02:44;13.45;;;9.07;;
43578;SDS011;29174;44.640;10.896;2024-03-23T06:05:10;15.38;;;10.93;;
43578;SDS011;29174;44.640;10.896;2024-03-23T06:07:36;16.67;;;10.77;;
43578;SDS011;29174;44.640;10.896;2024-03-23T06:10:02;13.77;;;10.55;;
43578;SDS011;29174;44.640;10.896;2024-03-23T06:12:28;17.20;;;10.30;;
43578;SDS011;29174;44.640;10.896;2024-03-23T06:14:54;14.90;;;9.85;;
43578;SDS011;29174;44.640;10.896;2024-03-23T06:17:20;19.33;;;10.13;;
43578;SDS011;29174;44.640;10.896;2024-03-23T06:19:45;15.02;;;10.00;;
43578;SDS011;29174;44.640;10.896;2024-03-23T06:22:11;16.35;;;10.23;;
43578;SDS011;29174;44.640;10.896;2024-03-23T06:24:37;14.98;;;8.90;;
43578;SDS011;29174;44.640;10.896;2024-03-23T06:27:02;14.93;;;8.90;;
43578;SDS011;29174;44.640;10.896;2024-03-23T06:29:28;16.05;;;8.80;;
43578;SDS011;29174;44.640;10.896;2024-03-23T06:31:54;13.63;;;8.20;;
43578;SDS011;29174;44.640;10.896;2024-03-23T06:34:20;12.35;;;9.00;;
43578;SDS011;29174;44.640;10.896;2024-03-23T06:36:47;11.63;;;8.40;;
43578;SDS011;29174;44.640;10.896;2024-03-23T06:39:14;13.13;;;9.07;;
43578;SDS011;29174;44.640;10.896;2024-03-23T06:41:41;14.70;;;9.50;;
43578;SDS011;29174;44.640;10.896;2024-03-23T06:44:07;15.95;;;9.15;;
43578;SDS011;29174;44.640;10.896;2024-03-23T06:46:33;12.13;;;9.50;;
43578;SDS011;29174;44.640;10.896;2024-03-23T06:48:59;15.32;;;8.85;;
43578;SDS011;29174;44.640;10.896;2024-03-23T06:51:25;14.05;;;9.10;;
43578;SDS011;29174;44.640;10.896;2024-03-23T06:53:50;15.05;;;9.48;;
43578;SDS011;29174;44.640;10.896;2024-03-23T06:56:16;13.48;;;9.88;;
43578;SDS011;29174;44.640;10.896;2024-03-23T06:58:42;17.38;;;9.82;;
43578;SDS011;29174;44.640;10.896;2024-03-23T07:01:08;15.23;;;9.98;;
43578;SDS011;29174;44.640;10.896;2024-03-23T07:03:33;15.35;;;10.35;;
43578;SDS011;29174;44.640;10.896;2024-03-23T07:05:59;16.02;;;9.68;;
43578;SDS011;29174;44.640;10.896;2024-03-23T07:08:24;21.27;;;10.07;;
43578;SDS011;29174;44.640;10.896;2024-03-23T07:10:50;14.73;;;10.20;;
43578;SDS011;29174;44.640;10.896;2024-03-23T07:13:16;16.23;;;10.60;;
43578;SDS011;29174;44.640;10.896;2024-03-23T07:15:51;16.10;;;10.30;;
43578;SDS011;29174;44.640;10.896;2024-03-23T07:18:17;17.33;;;10.70;;
43578;SDS011;29174;44.640;10.896;2024-03-23T07:20:51;15.95;;;10.27;;
43578;SDS011;29174;44.640;10.896;2024-03-23T07:23:21;16.65;;;10.27;;
43578;SDS011;29174;44.640;10.896;2024-03-23T07:25:59;14.10;;;10.23;;
43578;SDS011;29174;44.640;10.896;2024-03-23T07:28:26;16.13;;;11.20;;
43578;SDS011;29174;44.640;10.896;2024-03-23T07:31:12;12.57;;;8.82;;
43578;SDS011;29174;44.640;10.896;2024-03-23T07:33:48;14.23;;;10.00;;
43578;SDS011;29174;44.640;10.896;2024-03-23T07:36:14;15.27;;;9.40;;
43578;SDS011;29174;44.640;10.896;2024-03-23T07:38:40;13.55;;;9.98;;
43578;SDS011;29174;44.640;10.896;2024-03-23T07:41:07;14.75;;;8.88;;
43578;SDS011;29174;44.640;10.896;2024-03-23T07:43:34;16.40;;;9.18;;
43578;SDS011;29174;44.640;10.896;2024-03-23T07:46:01;14.88;;;9.02;;
43578;SDS011;29174;44.640;10.896;2024-03-23T07:48:28;13.30;;;9.10;;
43578;SDS011;29174;44.640;10.896;2024-03-23T07:51:06;13.90;;;8.82;;
43578;SDS011;29174;44.640;10.896;2024-03-23T07:53:34;12.38;;;8.52;;
43578;SDS011;29174;44.640;10.896;2024-03-23T07:58:27;12.20;;;9.00;;
43578;SDS011;29174;44.640;10.896;2024-03-23T08:00:54;13.07;;;8.38;;
43578;SDS011;29174;44.640;10.896;2024-03-23T08:05:46;13.80;;;9.63;;
43578;SDS011;29174;44.640;10.896;2024-03-23T08:08:12;13.50;;;8.53;;
43578;SDS011;29174;44.640;10.896;2024-03-23T08:10:51;12.50;;;8.18;;
43578;SDS011;29174;44.640;10.896;2024-03-23T08:13:17;13.98;;;8.20;;
43578;SDS011;29174;44.640;10.896;2024-03-23T08:15:43;14.37;;;7.67;;
43578;SDS011;29174;44.640;10.896;2024-03-23T08:18:10;10.52;;;7.63;;
43578;SDS011;29174;44.640;10.896;2024-03-23T08:20:37;11.23;;;8.00;;
43578;SDS011;29174;44.640;10.896;2024-03-23T08:23:02;9.50;;;6.82;;
43578;SDS011;29174;44.640;10.896;2024-03-23T08:25:32;10.45;;;6.80;;
43578;SDS011;29174;44.640;10.896;2024-03-23T08:27:59;11.15;;;6.38;;
43578;SDS011;29174;44.640;10.896;2024-03-23T08:30:25;9.95;;;6.20;;
43578;SDS011;29174;44.640;10.896;2024-03-23T08:32:51;13.32;;;6.78;;
43578;SDS011;29174;44.640;10.896;2024-03-23T08:35:16;10.25;;;6.75;;
43578;SDS011;29174;44.640;10.896;2024-03-23T08:37:42;8.50;;;6.73;;
43578;SDS011;29174;44.640;10.896;2024-03-23T08:40:08;9.82;;;6.53;;
43578;SDS011;29174;44.640;10.896;2024-03-23T08:42:34;12.98;;;5.93;;
43578;SDS011;29174;44.640;10.896;2024-03-23T08:45:00;7.83;;;4.63;;
43578;SDS011;29174;44.640;10.896;2024-03-23T08:47:26;8.77;;;5.22;;
43578;SDS011;29174;44.640;10.896;2024-03-23T08:49:51;8.38;;;4.43;;
43578;SDS011;29174;44.640;10.896;2024-03-23T08:52:17;10.13;;;4.90;;
43578;SDS011;29174;44.640;10.896;2024-03-23T08:54:43;8.05;;;4.78;;
43578;SDS011;29174;44.640;10.896;2024-03-23T08:57:09;9.20;;;5.47;;
43578;SDS011;29174;44.640;10.896;2024-03-23T08:59:34;11.68;;;4.57;;
43578;SDS011;29174;44.640;10.896;2024-03-23T09:02:00;9.37;;;4.40;;
43578;SDS011;29174;44.640;10.896;2024-03-23T09:04:26;6.47;;;4.05;;
43578;SDS011;29174;44.640;10.896;2024-03-23T09:06:51;7.73;;;4.23;;
43578;SDS011;29174;44.640;10.896;2024-03-23T09:09:17;8.23;;;4.43;;
43578;SDS011;29174;44.640;10.896;2024-03-23T09:11:44;13.05;;;5.10;;
43578;SDS011;29174;44.640;10.896;2024-03-23T09:14:10;11.77;;;4.63;;
43578;SDS011;29174;44.640;10.896;2024-03-23T09:16:36;10.00;;;4.32;;
43578;SDS011;29174;44.640;10.896;2024-03-23T09:19:01;12.73;;;4.03;;
43578;SDS011;29174;44.640;10.896;2024-03-23T09:21:27;11.40;;;4.32;;
43578;SDS011;29174;44.640;10.896;2024-03-23T09:23:53;7.35;;;3.70;;
43578;SDS011;29174;44.640;10.896;2024-03-23T09:26:18;6.90;;;3.87;;
43578;SDS011;29174;44.640;10.896;2024-03-23T09:28:44;6.15;;;4.88;;
43578;SDS011;29174;44.640;10.896;2024-03-23T09:31:10;5.63;;;3.75;;
43578;SDS011;29174;44.640;10.896;2024-03-23T09:33:39;7.18;;;3.40;;
43578;SDS011;29174;44.640;10.896;2024-03-23T09:36:05;6.85;;;4.53;;
43578;SDS011;29174;44.640;10.896;2024-03-23T09:38:31;7.35;;;3.90;;
43578;SDS011;29174;44.640;10.896;2024-03-23T09:40:57;6.75;;;3.90;;
43578;SDS011;29174;44.640;10.896;2024-03-23T09:43:24;5.28;;;3.88;;
43578;SDS011;29174;44.640;10.896;2024-03-23T09:45:50;7.28;;;3.97;;
43578;SDS011;29174;44.640;10.896;2024-03-23T09:48:16;8.73;;;4.38;;
43578;SDS011;29174;44.640;10.896;2024-03-23T09:50:43;7.82;;;3.97;;
43578;SDS011;29174;44.640;10.896;2024-03-23T09:53:10;6.50;;;3.92;;
43578;SDS011;29174;44.640;10.896;2024-03-23T09:55:38;6.35;;;3.60;;
43578;SDS011;29174;44.640;10.896;2024-03-23T10:00:30;7.40;;;4.47;;
43578;SDS011;29174;44.640;10.896;2024-03-23T10:03:04;6.88;;;4.10;;
43578;SDS011;29174;44.640;10.896;2024-03-23T10:07:59;6.50;;;4.70;;
43578;SDS011;29174;44.640;10.896;2024-03-23T10:10:25;8.73;;;5.57;;
43578;SDS011;29174;44.640;10.896;2024-03-23T10:12:51;8.17;;;5.33;;
43578;SDS011;29174;44.640;10.896;2024-03-23T10:15:24;8.73;;;5.30;;
43578;SDS011;29174;44.640;10.896;2024-03-23T10:17:50;10.07;;;5.95;;
43578;SDS011;29174;44.640;10.896;2024-03-23T10:20:20;9.95;;;7.07;;
43578;SDS011;29174;44.640;10.896;2024-03-23T10:22:47;9.73;;;6.53;;
43578;SDS011;29174;44.640;10.896;2024-03-23T10:27:40;9.63;;;4.97;;
43578;SDS011;29174;44.640;10.896;2024-03-23T10:30:09;7.03;;;4.83;;
43578;SDS011;29174;44.640;10.896;2024-03-23T10:32:36;8.15;;;4.18;;
43578;SDS011;29174;44.640;10.896;2024-03-23T10:35:19;9.55;;;3.90;;
43578;SDS011;29174;44.640;10.896;2024-03-23T10:37:47;7.50;;;4.63;;
43578;SDS011;29174;44.640;10.896;2024-03-23T10:40:14;6.70;;;4.40;;
43578;SDS011;29174;44.640;10.896;2024-03-23T10:42:40;7.90;;;4.38;;
43578;SDS011;29174;44.640;10.896;2024-03-23T10:45:07;7.40;;;4.23;;
43578;SDS011;29174;44.640;10.896;2024-03-23T10:47:37;6.90;;;3.70;;
43578;SDS011;29174;44.640;10.896;2024-03-23T10:50:05;9.20;;;3.78;;
43578;SDS011;29174;44.640;10.896;2024-03-23T10:52:34;4.75;;;2.90;;
43578;SDS011;29174;44.640;10.896;2024-03-23T10:55:02;5.20;;;2.67;;
43578;SDS011;29174;44.640;10.896;2024-03-23T10:57:37;4.75;;;3.08;;
43578;SDS011;29174;44.640;10.896;2024-03-23T11:00:10;8.95;;;2.83;;
43578;SDS011;29174;44.640;10.896;2024-03-23T11:02:37;5.82;;;2.80;;
43578;SDS011;29174;44.640;10.896;2024-03-23T11:05:20;8.33;;;3.07;;
43578;SDS011;29174;44.640;10.896;2024-03-23T11:07:51;6.75;;;3.10;;
43578;SDS011;29174;44.640;10.896;2024-03-23T11:10:27;17.45;;;3.15;;
43578;SDS011;29174;44.640;10.896;2024-03-23T11:12:58;11.27;;;3.17;;
43578;SDS011;29174;44.640;10.896;2024-03-23T11:15:43;11.93;;;4.55;;
43578;SDS011;29174;44.640;10.896;2024-03-23T11:18:09;16.17;;;4.17;;
43578;SDS011;29174;44.640;10.896;2024-03-23T11:20:37;8.95;;;3.17;;
43578;SDS011;29174;44.640;10.896;2024-03-23T11:23:02;5.70;;;2.80;;
43578;SDS011;29174;44.640;10.896;2024-03-23T11:25:29;8.48;;;4.38;;
43578;SDS011;29174;44.640;10.896;2024-03-23T11:27:56;5.73;;;3.57;;
43578;SDS011;29174;44.640;10.896;2024-03-23T11:30:23;6.85;;;3.70;;
43578;SDS011;29174;44.640;10.896;2024-03-23T11:32:57;6.05;;;2.67;;
43578;SDS011;29174;44.640;10.896;2024-03-23T11:40:30;5.28;;;3.15;;
43578;SDS011;29174;44.640;10.896;2024-03-23T11:42:57;6.57;;;3.83;;
43578;SDS011;29174;44.640;10.896;2024-03-23T11:45:24;7.82;;;3.70;;
43578;SDS011;29174;44.640;10.896;2024-03-23T11:48:01;5.80;;;3.57;;
43578;SDS011;29174;44.640;10.896;2024-03-23T11:50:29;8.23;;;3.28;;
43578;SDS011;29174;44.640;10.896;2024-03-23T11:58:18;7.60;;;3.20;;
43578;SDS011;29174;44.640;10.896;2024-03-23T12:00:50;9.90;;;3.63;;
43578;SDS011;29174;44.640;10.896;2024-03-23T12:03:19;6.97;;;3.60;;
43578;SDS011;29174;44.640;10.896;2024-03-23T12:05:51;8.93;;;3.42;;
43578;SDS011;29174;44.640;10.896;2024-03-23T12:10:49;6.88;;;4.28;;
43578;SDS011;29174;44.640;10.896;2024-03-23T12:13:16;5.97;;;4.35;;
43578;SDS011;29174;44.640;10.896;2024-03-23T12:15:50;6.32;;;4.40;;
43578;SDS011;29174;44.640;10.896;2024-03-23T12:18:16;6.60;;;4.20;;
43578;SDS011;29174;44.640;10.896;2024-03-23T12:20:43;9.48;;;3.70;;
43578;SDS011;29174;44.640;10.896;2024-03-23T12:23:11;8.67;;;4.43;;
43578;SDS011;29174;44.640;10.896;2024-03-23T12:25:38;6.03;;;4.32;;
43578;SDS011;29174;44.640;10.896;2024-03-23T12:28:04;9.25;;;4.90;;
43578;SDS011;29174;44.640;10.896;2024-03-23T12:30:34;10.07;;;5.07;;
43578;SDS011;29174;44.640;10.896;2024-03-23T12:33:03;8.27;;;5.97;;
43578;SDS011;29174;44.640;10.896;2024-03-23T12:35:29;8.97;;;5.23;;
43578;SDS011;29174;44.640;10.896;2024-03-23T12:37:55;9.03;;;5.90;;
43578;SDS011;29174;44.640;10.896;2024-03-23T12:40:20;7.77;;;5.33;;
43578;SDS011;29174;44.640;10.896;2024-03-23T12:42:46;8.47;;;5.23;;
43578;SDS011;29174;44.640;10.896;2024-03-23T12:45:12;8.53;;;5.13;;
43578;SDS011;29174;44.640;10.896;2024-03-23T12:47:37;7.93;;;5.40;;
43578;SDS011;29174;44.640;10.896;2024-03-23T12:50:03;7.47;;;5.00;;
43578;SDS011;29174;44.640;10.896;2024-03-23T12:52:29;7.93;;;5.00;;
43578;SDS011;29174;44.640;10.896;2024-03-23T12:54:58;8.77;;;5.13;;
43578;SDS011;29174;44.640;10.896;2024-03-23T12:57:24;7.75;;;5.57;;
43578;SDS011;29174;44.640;10.896;2024-03-23T12:59:50;11.23;;;6.40;;
43578;SDS011;29174;44.640;10.896;2024-03-23T13:02:19;13.43;;;6.93;;
43578;SDS011;29174;44.640;10.896;2024-03-23T13:04:49;13.18;;;5.78;;
43578;SDS011;29174;44.640;10.896;2024-03-23T13:07:16;10.30;;;6.43;;
43578;SDS011;29174;44.640;10.896;2024-03-23T13:09:42;12.57;;;7.63;;
43578;SDS011;29174;44.640;10.896;2024-03-23T13:12:08;9.07;;;6.23;;
43578;SDS011;29174;44.640;10.896;2024-03-23T13:14:34;11.77;;;7.30;;
43578;SDS011;29174;44.640;10.896;2024-03-23T13:16:59;9.57;;;6.40;;
43578;SDS011;29174;44.640;10.896;2024-03-23T13:19:25;8.80;;;6.37;;
43578;SDS011;29174;44.640;10.896;2024-03-23T13:21:53;10.88;;;6.88;;
43578;SDS011;29174;44.640;10.896;2024-03-23T13:24:23;9.82;;;6.93;;
43578;SDS011;29174;44.640;10.896;2024-03-23T13:26:52;16.17;;;7.88;;
43578;SDS011;29174;44.640;10.896;2024-03-23T13:29:19;11.77;;;7.65;;
43578;SDS011;29174;44.640;10.896;2024-03-23T13:31:45;10.77;;;6.60;;
43578;SDS011;29174;44.640;10.896;2024-03-23T13:34:11;9.55;;;6.47;;
43578;SDS011;29174;44.640;10.896;2024-03-23T13:36:40;9.20;;;6.13;;
43578;SDS011;29174;44.640;10.896;2024-03-23T13:39:09;10.07;;;5.38;;
43578;SDS011;29174;44.640;10.896;2024-03-23T13:41:39;11.38;;;6.53;;
43578;SDS011;29174;44.640;10.896;2024-03-23T13:44:05;10.45;;;5.55;;
43578;SDS011;29174;44.640;10.896;2024-03-23T13:46:32;8.55;;;5.50;;
43578;SDS011;29174;44.640;10.896;2024-03-23T13:48:58;11.27;;;5.45;;
43578;SDS011;29174;44.640;10.896;2024-03-23T13:51:25;10.73;;;6.00;;
43578;SDS011;29174;44.640;10.896;2024-03-23T13:53:52;11.43;;;6.10;;
43578;SDS011;29174;44.640;10.896;2024-03-23T13:56:19;9.32;;;5.47;;
43578;SDS011;29174;44.640;10.896;2024-03-23T13:58:45;8.07;;;4.60;;
43578;SDS011;29174;44.640;10.896;2024-03-23T14:01:12;8.20;;;4.45;;
43578;SDS011;29174;44.640;10.896;2024-03-23T14:03:39;8.10;;;4.82;;
43578;SDS011;29174;44.640;10.896;2024-03-23T14:06:05;6.20;;;3.55;;
43578;SDS011;29174;44.640;10.896;2024-03-23T14:08:32;7.90;;;3.47;;
43578;SDS011;29174;44.640;10.896;2024-03-23T14:11:00;7.43;;;3.45;;
43578;SDS011;29174;44.640;10.896;2024-03-23T14:13:27;6.70;;;3.20;;
43578;SDS011;29174;44.640;10.896;2024-03-23T14:18:19;9.20;;;1.97;;
43578;SDS011;29174;44.640;10.896;2024-03-23T14:20:45;5.67;;;1.93;;
43578;SDS011;29174;44.640;10.896;2024-03-23T14:23:10;11.17;;;2.03;;
43578;SDS011;29174;44.640;10.896;2024-03-23T14:25:36;11.37;;;2.57;;
43578;SDS011;29174;44.640;10.896;2024-03-23T14:28:01;9.43;;;1.77;;
43578;SDS011;29174;44.640;10.896;2024-03-23T14:30:27;8.07;;;2.17;;
43578;SDS011;29174;44.640;10.896;2024-03-23T14:32:53;4.90;;;1.70;;
43578;SDS011;29174;44.640;10.896;2024-03-23T14:35:19;5.80;;;1.90;;
43578;SDS011;29174;44.640;10.896;2024-03-23T14:37:44;6.60;;;1.67;;
43578;SDS011;29174;44.640;10.896;2024-03-23T14:40:12;9.77;;;2.03;;
43578;SDS011;29174;44.640;10.896;2024-03-23T14:42:38;5.87;;;1.43;;
43578;SDS011;29174;44.640;10.896;2024-03-23T14:45:04;3.88;;;1.40;;
43578;SDS011;29174;44.640;10.896;2024-03-23T14:47:30;6.13;;;1.65;;
43578;SDS011;29174;44.640;10.896;2024-03-23T14:49:56;5.40;;;1.95;;
43578;SDS011;29174;44.640;10.896;2024-03-23T14:52:23;4.45;;;1.25;;
43578;SDS011;29174;44.640;10.896;2024-03-23T14:54:49;6.60;;;1.80;;
43578;SDS011;29174;44.640;10.896;2024-03-23T14:57:15;3.80;;;1.60;;
43578;SDS011;29174;44.640;10.896;2024-03-23T14:59:41;5.87;;;1.30;;
43578;SDS011;29174;44.640;10.896;2024-03-23T15:02:09;4.47;;;1.97;;
43578;SDS011;29174;44.640;10.896;2024-03-23T15:04:37;7.28;;;1.75;;
43578;SDS011;29174;44.640;10.896;2024-03-23T15:07:05;6.35;;;1.77;;
43578;SDS011;29174;44.640;10.896;2024-03-23T15:09:31;6.67;;;2.03;;
43578;SDS011;29174;44.640;10.896;2024-03-23T15:11:57;11.43;;;1.77;;
43578;SDS011;29174;44.640;10.896;2024-03-23T15:14:23;5.83;;;1.87;;
43578;SDS011;29174;44.640;10.896;2024-03-23T15:16:49;6.87;;;1.60;;
43578;SDS011;29174;44.640;10.896;2024-03-23T15:19:16;6.22;;;2.03;;
43578;SDS011;29174;44.640;10.896;2024-03-23T15:21:42;4.28;;;1.88;;
43578;SDS011;29174;44.640;10.896;2024-03-23T15:24:08;4.85;;;1.90;;
43578;SDS011;29174;44.640;10.896;2024-03-23T15:26:36;6.20;;;1.88;;
43578;SDS011;29174;44.640;10.896;2024-03-23T15:29:02;11.48;;;2.65;;
43578;SDS011;29174;44.640;10.896;2024-03-23T15:31:28;8.77;;;1.80;;
43578;SDS011;29174;44.640;10.896;2024-03-23T15:33:56;7.10;;;1.45;;
43578;SDS011;29174;44.640;10.896;2024-03-23T15:36:22;4.57;;;1.20;;
43578;SDS011;29174;44.640;10.896;2024-03-23T15:38:47;14.27;;;3.07;;
43578;SDS011;29174;44.640;10.896;2024-03-23T15:41:14;7.20;;;2.13;;
43578;SDS011;29174;44.640;10.896;2024-03-23T15:43:39;4.60;;;1.43;;
43578;SDS011;29174;44.640;10.896;2024-03-23T15:46:06;9.05;;;1.33;;